sensor_id;sensor_type;location;lat;lon;timestamp;temperature;humidity
15143;DHT22;7672;50.834;6.286;2023-08-17T00:00:23;22.10;99.90
15143;DHT22;7672;50.834;6.286;2023-08-17T00:02:50;21.80;99.90
15143;DHT22;7672;50.834;6.286;2023-08-17T00:05:17;21.80;99.90
15143;DHT22;7672;50.834;6.286;2023-08-17T00:07:44;21.80;99.90
15143;DHT22;7672;50.834;6.286;2023-08-17T00:10:11;21.80;99.90
15143;DHT22;7672;50.834;6.286;2023-08-17T00:12:39;21.80;99.90
15143;DHT22;7672;50.834;6.286;2023-08-17T00:15:06;22.00;99.90
15143;DHT22;7672;50.834;6.286;2023-08-17T00:17:33;21.80;99.90
15143;DHT22;7672;50.834;6.286;2023-08-17T00:20:00;21.70;99.90
15143;DHT22;7672;50.834;6.286;2023-08-17T00:22:28;21.70;99.90
15143;DHT22;7672;50.834;6.286;2023-08-17T00:24:55;21.80;99.90
15143;DHT22;7672;50.834;6.286;2023-08-17T00:27:22;21.60;99.90
15143;DHT22;7672;50.834;6.286;2023-08-17T00:29:50;21.60;99.90
15143;DHT22;7672;50.834;6.286;2023-08-17T00:32:17;21.60;99.90
15143;DHT22;7672;50.834;6.286;2023-08-17T00:34:45;21.60;99.90
15143;DHT22;7672;50.834;6.286;2023-08-17T00:37:12;21.50;99.90
15143;DHT22;7672;50.834;6.286;2023-08-17T00:39:39;21.60;99.90
15143;DHT22;7672;50.834;6.286;2023-08-17T00:42:06;21.60;99.90
15143;DHT22;7672;50.834;6.286;2023-08-17T00:44:35;21.30;99.90
15143;DHT22;7672;50.834;6.286;2023-08-17T00:47:02;21.30;99.90
15143;DHT22;7672;50.834;6.286;2023-08-17T00:49:32;21.30;99.90
15143;DHT22;7672;50.834;6.286;2023-08-17T00:52:02;21.30;99.90
15143;DHT22;7672;50.834;6.286;2023-08-17T00:54:32;21.30;99.90
15143;DHT22;7672;50.834;6.286;2023-08-17T00:56:59;21.30;99.90
15143;DHT22;7672;50.834;6.286;2023-08-17T00:59:28;21.20;99.90
15143;DHT22;7672;50.834;6.286;2023-08-17T01:02:02;21.20;99.90
15143;DHT22;7672;50.834;6.286;2023-08-17T01:04:31;21.10;99.90
15143;DHT22;7672;50.834;6.286;2023-08-17T01:06:59;21.00;99.90
15143;DHT22;7672;50.834;6.286;2023-08-17T01:09:26;21.10;99.90
15143;DHT22;7672;50.834;6.286;2023-08-17T01:12:19;21.00;99.90
15143;DHT22;7672;50.834;6.286;2023-08-17T01:15:19;21.00;99.90
15143;DHT22;7672;50.834;6.286;2023-08-17T01:20:27;21.00;99.90
15143;DHT22;7672;50.834;6.286;2023-08-17T01:23:06;21.00;99.90
15143;DHT22;7672;50.834;6.286;2023-08-17T01:25:33;20.90;99.90
15143;DHT22;7672;50.834;6.286;2023-08-17T01:28:04;21.00;99.90
15143;DHT22;7672;50.834;6.286;2023-08-17T01:30:49;20.90;99.90
15143;DHT22;7672;50.834;6.286;2023-08-17T01:33:31;20.90;99.90
15143;DHT22;7672;50.834;6.286;2023-08-17T01:36:10;21.00;99.90
15143;DHT22;7672;50.834;6.286;2023-08-17T01:38:44;20.90;99.90
15143;DHT22;7672;50.834;6.286;2023-08-17T01:41:13;20.90;99.90
15143;DHT22;7672;50.834;6.286;2023-08-17T01:43:43;20.90;99.90
15143;DHT22;7672;50.834;6.286;2023-08-17T01:46:16;21.00;99.90
15143;DHT22;7672;50.834;6.286;2023-08-17T01:48:45;20.90;99.90
15143;DHT22;7672;50.834;6.286;2023-08-17T01:51:17;21.10;99.90
15143;DHT22;7672;50.834;6.286;2023-08-17T01:53:47;20.90;99.90
15143;DHT22;7672;50.834;6.286;2023-08-17T01:56:14;20.90;99.90
15143;DHT22;7672;50.834;6.286;2023-08-17T01:58:41;20.80;99.90
15143;DHT22;7672;50.834;6.286;2023-08-17T02:01:10;20.90;99.90
15143;DHT22;7672;50.834;6.286;2023-08-17T02:03:37;20.90;99.90
15143;DHT22;7672;50.834;6.286;2023-08-17T02:06:04;20.90;99.90
15143;DHT22;7672;50.834;6.286;2023-08-17T02:08:33;20.80;99.90
15143;DHT22;7672;50.834;6.286;2023-08-17T02:11:00;21.00;99.90
15143;DHT22;7672;50.834;6.286;2023-08-17T02:13:27;20.80;99.90
15143;DHT22;7672;50.834;6.286;2023-08-17T02:16:02;20.80;99.90
15143;DHT22;7672;50.834;6.286;2023-08-17T02:18:29;20.80;99.90
15143;DHT22;7672;50.834;6.286;2023-08-17T02:20:58;20.90;99.90
15143;DHT22;7672;50.834;6.286;2023-08-17T02:23:25;20.80;99.90
15143;DHT22;7672;50.834;6.286;2023-08-17T02:25:52;20.60;99.90
15143;DHT22;7672;50.834;6.286;2023-08-17T02:28:21;20.90;99.90
15143;DHT22;7672;50.834;6.286;2023-08-17T02:30:48;20.80;99.90
15143;DHT22;7672;50.834;6.286;2023-08-17T02:33:15;21.20;99.90
15143;DHT22;7672;50.834;6.286;2023-08-17T02:35:42;21.00;99.90
15143;DHT22;7672;50.834;6.286;2023-08-17T02:38:15;20.60;99.90
15143;DHT22;7672;50.834;6.286;2023-08-17T02:40:42;20.90;99.90
15143;DHT22;7672;50.834;6.286;2023-08-17T02:43:10;20.70;99.90
15143;DHT22;7672;50.834;6.286;2023-08-17T02:45:37;20.90;99.90
15143;DHT22;7672;50.834;6.286;2023-08-17T02:48:04;21.00;99.90
15143;DHT22;7672;50.834;6.286;2023-08-17T02:50:31;20.70;99.90
15143;DHT22;7672;50.834;6.286;2023-08-17T02:52:58;20.70;99.90
15143;DHT22;7672;50.834;6.286;2023-08-17T02:55:26;20.70;99.90
15143;DHT22;7672;50.834;6.286;2023-08-17T02:57:53;20.80;99.90
15143;DHT22;7672;50.834;6.286;2023-08-17T03:00:20;21.00;99.90
15143;DHT22;7672;50.834;6.286;2023-08-17T03:02:48;20.70;99.90
15143;DHT22;7672;50.834;6.286;2023-08-17T03:05:15;20.70;99.90
15143;DHT22;7672;50.834;6.286;2023-08-17T03:07:43;21.00;99.90
15143;DHT22;7672;50.834;6.286;2023-08-17T03:10:10;20.80;99.90
15143;DHT22;7672;50.834;6.286;2023-08-17T03:12:38;20.80;99.90
15143;DHT22;7672;50.834;6.286;2023-08-17T03:15:06;20.70;99.90
15143;DHT22;7672;50.834;6.286;2023-08-17T03:17:35;20.70;99.90
15143;DHT22;7672;50.834;6.286;2023-08-17T03:20:03;20.70;99.90
15143;DHT22;7672;50.834;6.286;2023-08-17T03:22:34;20.70;99.90
15143;DHT22;7672;50.834;6.286;2023-08-17T03:25:01;20.80;99.90
15143;DHT22;7672;50.834;6.286;2023-08-17T03:27:30;20.70;99.90
15143;DHT22;7672;50.834;6.286;2023-08-17T03:29:57;20.70;99.90
15143;DHT22;7672;50.834;6.286;2023-08-17T03:32:24;20.70;99.90
15143;DHT22;7672;50.834;6.286;2023-08-17T03:34:52;20.80;99.90
15143;DHT22;7672;50.834;6.286;2023-08-17T03:37:19;20.70;99.90
15143;DHT22;7672;50.834;6.286;2023-08-17T03:39:46;20.70;99.90
15143;DHT22;7672;50.834;6.286;2023-08-17T03:42:13;21.10;99.90
15143;DHT22;7672;50.834;6.286;2023-08-17T03:44:40;21.00;99.90
15143;DHT22;7672;50.834;6.286;2023-08-17T03:47:07;20.70;99.90
15143;DHT22;7672;50.834;6.286;2023-08-17T03:49:34;20.70;99.90
15143;DHT22;7672;50.834;6.286;2023-08-17T03:52:01;20.70;99.90
15143;DHT22;7672;50.834;6.286;2023-08-17T03:54:28;20.70;99.90
15143;DHT22;7672;50.834;6.286;2023-08-17T03:56:55;20.80;99.90
15143;DHT22;7672;50.834;6.286;2023-08-17T03:59:22;21.10;99.90
15143;DHT22;7672;50.834;6.286;2023-08-17T04:01:50;20.80;99.90
15143;DHT22;7672;50.834;6.286;2023-08-17T04:04:17;20.70;99.90
15143;DHT22;7672;50.834;6.286;2023-08-17T04:06:45;20.80;99.90
15143;DHT22;7672;50.834;6.286;2023-08-17T04:09:12;20.80;99.90
15143;DHT22;7672;50.834;6.286;2023-08-17T04:11:39;20.70;99.90
15143;DHT22;7672;50.834;6.286;2023-08-17T04:14:06;20.80;99.90
15143;DHT22;7672;50.834;6.286;2023-08-17T04:16:35;20.70;99.90
15143;DHT22;7672;50.834;6.286;2023-08-17T04:19:02;20.60;99.90
15143;DHT22;7672;50.834;6.286;2023-08-17T04:21:30;20.70;99.90
15143;DHT22;7672;50.834;6.286;2023-08-17T04:23:57;20.80;99.90
15143;DHT22;7672;50.834;6.286;2023-08-17T04:26:24;20.70;99.90
15143;DHT22;7672;50.834;6.286;2023-08-17T04:28:52;20.60;99.90
15143;DHT22;7672;50.834;6.286;2023-08-17T04:31:19;20.70;99.90
15143;DHT22;7672;50.834;6.286;2023-08-17T04:33:54;20.50;99.90
15143;DHT22;7672;50.834;6.286;2023-08-17T04:36:21;20.70;99.90
15143;DHT22;7672;50.834;6.286;2023-08-17T04:38:48;20.60;99.90
15143;DHT22;7672;50.834;6.286;2023-08-17T04:41:16;20.60;99.90
15143;DHT22;7672;50.834;6.286;2023-08-17T04:43:43;20.60;99.90
15143;DHT22;7672;50.834;6.286;2023-08-17T04:46:13;20.70;99.90
15143;DHT22;7672;50.834;6.286;2023-08-17T04:48:41;21.00;99.90
15143;DHT22;7672;50.834;6.286;2023-08-17T04:51:08;20.50;99.90
15143;DHT22;7672;50.834;6.286;2023-08-17T04:53:35;20.50;99.90
15143;DHT22;7672;50.834;6.286;2023-08-17T04:56:04;20.50;99.90
15143;DHT22;7672;50.834;6.286;2023-08-17T04:58:31;20.50;99.90
15143;DHT22;7672;50.834;6.286;2023-08-17T05:00:59;20.40;99.90
15143;DHT22;7672;50.834;6.286;2023-08-17T05:03:26;20.50;99.90
15143;DHT22;7672;50.834;6.286;2023-08-17T05:06:01;20.40;99.90
15143;DHT22;7672;50.834;6.286;2023-08-17T05:08:28;20.40;99.90
15143;DHT22;7672;50.834;6.286;2023-08-17T05:10:55;20.30;99.90
15143;DHT22;7672;50.834;6.286;2023-08-17T05:13:24;20.30;99.90
15143;DHT22;7672;50.834;6.286;2023-08-17T05:15:53;20.40;99.90
15143;DHT22;7672;50.834;6.286;2023-08-17T05:18:21;20.30;99.90
15143;DHT22;7672;50.834;6.286;2023-08-17T05:20:48;20.30;99.90
15143;DHT22;7672;50.834;6.286;2023-08-17T05:23:15;20.30;99.90
15143;DHT22;7672;50.834;6.286;2023-08-17T05:25:46;20.40;99.90
15143;DHT22;7672;50.834;6.286;2023-08-17T05:28:14;20.30;99.90
15143;DHT22;7672;50.834;6.286;2023-08-17T05:30:41;20.30;99.90
15143;DHT22;7672;50.834;6.286;2023-08-17T05:33:08;20.30;99.90
15143;DHT22;7672;50.834;6.286;2023-08-17T05:35:36;20.70;99.90
15143;DHT22;7672;50.834;6.286;2023-08-17T05:38:03;20.60;99.90
15143;DHT22;7672;50.834;6.286;2023-08-17T05:40:31;20.20;99.90
15143;DHT22;7672;50.834;6.286;2023-08-17T05:42:59;20.30;99.90
15143;DHT22;7672;50.834;6.286;2023-08-17T05:45:26;20.20;99.90
15143;DHT22;7672;50.834;6.286;2023-08-17T05:47:53;20.20;99.90
15143;DHT22;7672;50.834;6.286;2023-08-17T05:50:20;20.70;99.90
15143;DHT22;7672;50.834;6.286;2023-08-17T05:52:47;20.30;99.90
15143;DHT22;7672;50.834;6.286;2023-08-17T05:55:14;20.30;99.90
15143;DHT22;7672;50.834;6.286;2023-08-17T05:57:42;20.30;99.90
15143;DHT22;7672;50.834;6.286;2023-08-17T06:00:09;20.30;99.90
15143;DHT22;7672;50.834;6.286;2023-08-17T06:02:41;20.40;99.90
15143;DHT22;7672;50.834;6.286;2023-08-17T06:05:08;20.40;99.90
15143;DHT22;7672;50.834;6.286;2023-08-17T06:07:36;20.40;99.90
15143;DHT22;7672;50.834;6.286;2023-08-17T06:10:04;20.40;99.90
15143;DHT22;7672;50.834;6.286;2023-08-17T06:12:33;20.40;99.90
15143;DHT22;7672;50.834;6.286;2023-08-17T06:15:02;20.40;99.90
15143;DHT22;7672;50.834;6.286;2023-08-17T06:17:30;20.40;99.90
15143;DHT22;7672;50.834;6.286;2023-08-17T06:19:57;20.40;99.90
15143;DHT22;7672;50.834;6.286;2023-08-17T06:22:25;20.40;99.90
15143;DHT22;7672;50.834;6.286;2023-08-17T06:24:52;20.40;99.90
15143;DHT22;7672;50.834;6.286;2023-08-17T06:27:19;20.30;99.90
15143;DHT22;7672;50.834;6.286;2023-08-17T06:29:46;20.30;99.90
15143;DHT22;7672;50.834;6.286;2023-08-17T06:32:13;20.40;99.90
15143;DHT22;7672;50.834;6.286;2023-08-17T06:34:40;20.40;99.90
15143;DHT22;7672;50.834;6.286;2023-08-17T06:37:07;20.40;99.90
15143;DHT22;7672;50.834;6.286;2023-08-17T06:39:34;20.40;99.90
15143;DHT22;7672;50.834;6.286;2023-08-17T06:42:01;20.40;99.90
15143;DHT22;7672;50.834;6.286;2023-08-17T06:44:28;20.40;99.90
15143;DHT22;7672;50.834;6.286;2023-08-17T06:46:57;20.50;99.90
15143;DHT22;7672;50.834;6.286;2023-08-17T06:49:26;20.70;99.90
15143;DHT22;7672;50.834;6.286;2023-08-17T06:51:53;20.40;99.90
15143;DHT22;7672;50.834;6.286;2023-08-17T06:54:20;20.40;99.90
15143;DHT22;7672;50.834;6.286;2023-08-17T06:56:47;20.60;99.90
15143;DHT22;7672;50.834;6.286;2023-08-17T06:59:15;20.50;99.90
15143;DHT22;7672;50.834;6.286;2023-08-17T07:01:42;20.70;99.90
15143;DHT22;7672;50.834;6.286;2023-08-17T07:04:09;20.80;99.90
15143;DHT22;7672;50.834;6.286;2023-08-17T07:06:36;20.60;99.90
15143;DHT22;7672;50.834;6.286;2023-08-17T07:09:03;20.60;99.90
15143;DHT22;7672;50.834;6.286;2023-08-17T07:11:32;20.60;99.90
15143;DHT22;7672;50.834;6.286;2023-08-17T07:13:59;20.70;99.90
15143;DHT22;7672;50.834;6.286;2023-08-17T07:16:26;20.60;99.90
15143;DHT22;7672;50.834;6.286;2023-08-17T07:18:53;20.80;99.90
15143;DHT22;7672;50.834;6.286;2023-08-17T07:21:20;20.90;99.90
15143;DHT22;7672;50.834;6.286;2023-08-17T07:23:47;20.80;99.90
15143;DHT22;7672;50.834;6.286;2023-08-17T07:26:16;20.70;99.90
15143;DHT22;7672;50.834;6.286;2023-08-17T07:28:46;21.10;99.90
15143;DHT22;7672;50.834;6.286;2023-08-17T07:31:14;21.20;99.90
15143;DHT22;7672;50.834;6.286;2023-08-17T07:33:41;20.80;99.90
15143;DHT22;7672;50.834;6.286;2023-08-17T07:36:08;20.90;99.90
15143;DHT22;7672;50.834;6.286;2023-08-17T07:38:35;21.00;99.90
15143;DHT22;7672;50.834;6.286;2023-08-17T07:41:03;20.90;99.90
15143;DHT22;7672;50.834;6.286;2023-08-17T07:43:30;21.00;99.90
15143;DHT22;7672;50.834;6.286;2023-08-17T07:45:57;21.20;99.90
15143;DHT22;7672;50.834;6.286;2023-08-17T07:48:25;21.00;99.90
15143;DHT22;7672;50.834;6.286;2023-08-17T07:50:52;21.10;99.90
15143;DHT22;7672;50.834;6.286;2023-08-17T07:53:20;21.10;99.90
15143;DHT22;7672;50.834;6.286;2023-08-17T07:55:47;21.20;99.90
15143;DHT22;7672;50.834;6.286;2023-08-17T07:58:17;21.20;99.90
15143;DHT22;7672;50.834;6.286;2023-08-17T08:00:44;21.20;99.90
15143;DHT22;7672;50.834;6.286;2023-08-17T08:03:11;21.20;99.90
15143;DHT22;7672;50.834;6.286;2023-08-17T08:05:38;21.30;99.90
15143;DHT22;7672;50.834;6.286;2023-08-17T08:08:05;21.70;99.90
15143;DHT22;7672;50.834;6.286;2023-08-17T08:10:33;21.30;99.90
15143;DHT22;7672;50.834;6.286;2023-08-17T08:13:00;21.40;99.90
15143;DHT22;7672;50.834;6.286;2023-08-17T08:15:27;21.40;99.90
15143;DHT22;7672;50.834;6.286;2023-08-17T08:17:54;21.50;99.90
15143;DHT22;7672;50.834;6.286;2023-08-17T08:20:21;21.50;99.90
15143;DHT22;7672;50.834;6.286;2023-08-17T08:22:48;21.70;99.90
15143;DHT22;7672;50.834;6.286;2023-08-17T08:25:15;21.50;99.90
15143;DHT22;7672;50.834;6.286;2023-08-17T08:27:43;21.60;99.90
15143;DHT22;7672;50.834;6.286;2023-08-17T08:30:10;21.60;99.90
15143;DHT22;7672;50.834;6.286;2023-08-17T08:32:38;21.60;99.90
15143;DHT22;7672;50.834;6.286;2023-08-17T08:35:05;21.70;99.90
15143;DHT22;7672;50.834;6.286;2023-08-17T08:37:33;21.60;99.90
15143;DHT22;7672;50.834;6.286;2023-08-17T08:40:00;21.70;99.90
15143;DHT22;7672;50.834;6.286;2023-08-17T08:42:27;21.70;99.90
15143;DHT22;7672;50.834;6.286;2023-08-17T08:44:55;21.70;99.90
15143;DHT22;7672;50.834;6.286;2023-08-17T08:47:23;21.70;99.90
15143;DHT22;7672;50.834;6.286;2023-08-17T08:50:00;21.80;99.90
15143;DHT22;7672;50.834;6.286;2023-08-17T08:52:38;21.90;99.90
15143;DHT22;7672;50.834;6.286;2023-08-17T08:55:11;21.80;99.90
15143;DHT22;7672;50.834;6.286;2023-08-17T08:57:44;21.80;99.90
15143;DHT22;7672;50.834;6.286;2023-08-17T09:00:18;21.90;99.90
15143;DHT22;7672;50.834;6.286;2023-08-17T09:02:46;21.80;99.90
15143;DHT22;7672;50.834;6.286;2023-08-17T09:05:13;21.90;99.90
15143;DHT22;7672;50.834;6.286;2023-08-17T09:07:52;21.80;99.90
15143;DHT22;7672;50.834;6.286;2023-08-17T09:10:20;22.30;99.90
15143;DHT22;7672;50.834;6.286;2023-08-17T09:12:47;21.90;99.90
15143;DHT22;7672;50.834;6.286;2023-08-17T09:15:16;21.90;99.90
15143;DHT22;7672;50.834;6.286;2023-08-17T09:17:43;21.90;99.90
15143;DHT22;7672;50.834;6.286;2023-08-17T09:20:40;21.90;99.90
15143;DHT22;7672;50.834;6.286;2023-08-17T09:23:18;22.00;99.90
15143;DHT22;7672;50.834;6.286;2023-08-17T09:25:48;22.00;99.90
15143;DHT22;7672;50.834;6.286;2023-08-17T09:28:21;22.10;99.90
15143;DHT22;7672;50.834;6.286;2023-08-17T09:30:56;22.10;99.90
15143;DHT22;7672;50.834;6.286;2023-08-17T09:33:30;22.00;99.90
15143;DHT22;7672;50.834;6.286;2023-08-17T09:35:59;22.00;99.90
15143;DHT22;7672;50.834;6.286;2023-08-17T09:38:27;22.10;99.90
15143;DHT22;7672;50.834;6.286;2023-08-17T09:40:57;22.10;99.90
15143;DHT22;7672;50.834;6.286;2023-08-17T09:43:25;22.60;99.90
15143;DHT22;7672;50.834;6.286;2023-08-17T09:45:58;22.10;99.90
15143;DHT22;7672;50.834;6.286;2023-08-17T09:48:26;22.30;99.90
15143;DHT22;7672;50.834;6.286;2023-08-17T09:50:59;22.50;99.90
15143;DHT22;7672;50.834;6.286;2023-08-17T09:53:28;22.80;99.90
15143;DHT22;7672;50.834;6.286;2023-08-17T09:55:55;22.40;99.90
15143;DHT22;7672;50.834;6.286;2023-08-17T09:58:26;22.50;99.90
15143;DHT22;7672;50.834;6.286;2023-08-17T10:01:03;22.50;99.90
15143;DHT22;7672;50.834;6.286;2023-08-17T10:03:34;22.60;99.90
15143;DHT22;7672;50.834;6.286;2023-08-17T10:06:05;22.80;99.90
15143;DHT22;7672;50.834;6.286;2023-08-17T10:08:42;22.70;99.90
15143;DHT22;7672;50.834;6.286;2023-08-17T10:11:12;23.00;99.90
15143;DHT22;7672;50.834;6.286;2023-08-17T10:13:48;23.00;99.90
15143;DHT22;7672;50.834;6.286;2023-08-17T10:16:23;23.00;99.90
15143;DHT22;7672;50.834;6.286;2023-08-17T10:21:39;23.00;99.90
15143;DHT22;7672;50.834;6.286;2023-08-17T10:24:20;23.10;99.90
15143;DHT22;7672;50.834;6.286;2023-08-17T10:26:48;23.10;99.90
15143;DHT22;7672;50.834;6.286;2023-08-17T10:29:23;23.10;99.90
15143;DHT22;7672;50.834;6.286;2023-08-17T10:31:51;23.20;99.90
15143;DHT22;7672;50.834;6.286;2023-08-17T10:34:18;23.20;99.90
15143;DHT22;7672;50.834;6.286;2023-08-17T10:36:46;23.20;99.90
15143;DHT22;7672;50.834;6.286;2023-08-17T10:39:21;23.20;99.90
15143;DHT22;7672;50.834;6.286;2023-08-17T10:41:57;23.30;99.90
15143;DHT22;7672;50.834;6.286;2023-08-17T10:44:44;23.20;99.90
15143;DHT22;7672;50.834;6.286;2023-08-17T10:47:28;23.10;99.90
15143;DHT22;7672;50.834;6.286;2023-08-17T10:50:10;23.10;99.90
15143;DHT22;7672;50.834;6.286;2023-08-17T10:52:49;23.10;99.90
15143;DHT22;7672;50.834;6.286;2023-08-17T10:55:17;23.10;99.90
15143;DHT22;7672;50.834;6.286;2023-08-17T10:57:51;23.10;99.90
15143;DHT22;7672;50.834;6.286;2023-08-17T11:00:22;23.00;99.90
15143;DHT22;7672;50.834;6.286;2023-08-17T11:03:08;23.10;99.90
15143;DHT22;7672;50.834;6.286;2023-08-17T11:05:49;23.50;99.90
15143;DHT22;7672;50.834;6.286;2023-08-17T11:08:27;23.10;99.90
15143;DHT22;7672;50.834;6.286;2023-08-17T11:11:23;23.10;99.90
15143;DHT22;7672;50.834;6.286;2023-08-17T11:13:52;23.20;99.90
15143;DHT22;7672;50.834;6.286;2023-08-17T11:16:24;23.20;99.90
15143;DHT22;7672;50.834;6.286;2023-08-17T11:18:52;23.20;99.90
15143;DHT22;7672;50.834;6.286;2023-08-17T11:21:20;23.20;99.90
15143;DHT22;7672;50.834;6.286;2023-08-17T11:23:47;23.40;99.90
15143;DHT22;7672;50.834;6.286;2023-08-17T11:26:18;23.70;99.90
15143;DHT22;7672;50.834;6.286;2023-08-17T11:28:48;23.10;99.90
15143;DHT22;7672;50.834;6.286;2023-08-17T11:31:22;23.10;99.90
15143;DHT22;7672;50.834;6.286;2023-08-17T11:33:52;23.20;99.90
15143;DHT22;7672;50.834;6.286;2023-08-17T11:36:25;23.20;99.90
15143;DHT22;7672;50.834;6.286;2023-08-17T11:38:52;23.20;99.90
15143;DHT22;7672;50.834;6.286;2023-08-17T11:41:40;23.50;99.90
15143;DHT22;7672;50.834;6.286;2023-08-17T11:44:38;23.20;99.90
15143;DHT22;7672;50.834;6.286;2023-08-17T11:47:37;23.30;99.90
15143;DHT22;7672;50.834;6.286;2023-08-17T11:50:28;23.40;99.90
15143;DHT22;7672;50.834;6.286;2023-08-17T11:53:58;23.50;99.90
15143;DHT22;7672;50.834;6.286;2023-08-17T11:56:44;23.40;99.90
15143;DHT22;7672;50.834;6.286;2023-08-17T12:03:15;23.60;99.90
15143;DHT22;7672;50.834;6.286;2023-08-17T12:05:53;23.30;99.90
15143;DHT22;7672;50.834;6.286;2023-08-17T12:09:12;23.60;99.90
15143;DHT22;7672;50.834;6.286;2023-08-17T12:11:53;23.70;99.90
15143;DHT22;7672;50.834;6.286;2023-08-17T12:14:56;23.70;99.90
15143;DHT22;7672;50.834;6.286;2023-08-17T12:18:04;23.50;99.90
15143;DHT22;7672;50.834;6.286;2023-08-17T12:20:42;23.70;99.90
15143;DHT22;7672;50.834;6.286;2023-08-17T12:23:21;23.70;99.90
15143;DHT22;7672;50.834;6.286;2023-08-17T12:26:41;23.60;99.90
15143;DHT22;7672;50.834;6.286;2023-08-17T12:29:18;23.50;99.90
15143;DHT22;7672;50.834;6.286;2023-08-17T12:32:04;23.60;99.90
15143;DHT22;7672;50.834;6.286;2023-08-17T12:35:17;23.60;99.90
15143;DHT22;7672;50.834;6.286;2023-08-17T12:38:04;24.10;99.90
15143;DHT22;7672;50.834;6.286;2023-08-17T12:40:38;23.60;99.90
15143;DHT22;7672;50.834;6.286;2023-08-17T12:43:28;23.70;99.90
15143;DHT22;7672;50.834;6.286;2023-08-17T12:46:05;23.90;99.90
15143;DHT22;7672;50.834;6.286;2023-08-17T12:48:35;23.80;99.90
15143;DHT22;7672;50.834;6.286;2023-08-17T12:51:06;23.80;99.90
15143;DHT22;7672;50.834;6.286;2023-08-17T12:54:08;23.90;99.90
15143;DHT22;7672;50.834;6.286;2023-08-17T12:56:39;23.90;99.90
15143;DHT22;7672;50.834;6.286;2023-08-17T13:00:06;23.90;99.90
15143;DHT22;7672;50.834;6.286;2023-08-17T13:03:10;23.90;99.90
15143;DHT22;7672;50.834;6.286;2023-08-17T13:05:58;23.70;99.90
15143;DHT22;7672;50.834;6.286;2023-08-17T13:08:46;24.10;99.90
15143;DHT22;7672;50.834;6.286;2023-08-17T13:11:40;24.10;99.90
15143;DHT22;7672;50.834;6.286;2023-08-17T13:14:24;24.00;99.90
15143;DHT22;7672;50.834;6.286;2023-08-17T13:16:55;24.10;99.90
15143;DHT22;7672;50.834;6.286;2023-08-17T13:23:16;24.60;99.90
15143;DHT22;7672;50.834;6.286;2023-08-17T13:26:17;24.80;99.90
15143;DHT22;7672;50.834;6.286;2023-08-17T13:28:51;24.50;99.90
15143;DHT22;7672;50.834;6.286;2023-08-17T13:31:18;24.60;99.90
15143;DHT22;7672;50.834;6.286;2023-08-17T13:33:51;24.70;99.90
15143;DHT22;7672;50.834;6.286;2023-08-17T13:36:19;24.70;99.90
15143;DHT22;7672;50.834;6.286;2023-08-17T13:38:47;24.80;99.90
15143;DHT22;7672;50.834;6.286;2023-08-17T13:41:16;24.90;99.90
15143;DHT22;7672;50.834;6.286;2023-08-17T13:43:56;24.60;99.90
15143;DHT22;7672;50.834;6.286;2023-08-17T13:46:26;25.00;99.90
15143;DHT22;7672;50.834;6.286;2023-08-17T13:48:57;25.00;99.90
15143;DHT22;7672;50.834;6.286;2023-08-17T13:51:24;25.00;99.90
15143;DHT22;7672;50.834;6.286;2023-08-17T13:53:54;25.10;99.90
15143;DHT22;7672;50.834;6.286;2023-08-17T13:56:40;25.10;99.90
15143;DHT22;7672;50.834;6.286;2023-08-17T13:59:17;25.20;99.90
15143;DHT22;7672;50.834;6.286;2023-08-17T14:01:44;25.30;99.90
15143;DHT22;7672;50.834;6.286;2023-08-17T14:04:11;25.20;99.90
15143;DHT22;7672;50.834;6.286;2023-08-17T14:06:42;25.20;99.90
15143;DHT22;7672;50.834;6.286;2023-08-17T14:09:09;25.10;99.90
15143;DHT22;7672;50.834;6.286;2023-08-17T14:11:43;25.10;99.90
15143;DHT22;7672;50.834;6.286;2023-08-17T14:15:08;25.00;99.90
15143;DHT22;7672;50.834;6.286;2023-08-17T14:18:29;25.00;99.90
15143;DHT22;7672;50.834;6.286;2023-08-17T14:21:34;24.90;99.90
15143;DHT22;7672;50.834;6.286;2023-08-17T14:24:05;24.90;99.90
15143;DHT22;7672;50.834;6.286;2023-08-17T14:26:55;24.90;99.90
15143;DHT22;7672;50.834;6.286;2023-08-17T14:29:25;24.80;99.90
15143;DHT22;7672;50.834;6.286;2023-08-17T14:31:52;24.80;99.90
15143;DHT22;7672;50.834;6.286;2023-08-17T14:34:28;24.80;99.90
15143;DHT22;7672;50.834;6.286;2023-08-17T14:36:55;24.80;99.90
15143;DHT22;7672;50.834;6.286;2023-08-17T14:39:24;24.80;99.90
15143;DHT22;7672;50.834;6.286;2023-08-17T14:41:56;24.80;99.90
15143;DHT22;7672;50.834;6.286;2023-08-17T14:44:23;24.90;99.90
15143;DHT22;7672;50.834;6.286;2023-08-17T14:46:51;24.80;99.90
15143;DHT22;7672;50.834;6.286;2023-08-17T14:49:20;24.90;99.90
15143;DHT22;7672;50.834;6.286;2023-08-17T14:51:52;24.90;99.90
15143;DHT22;7672;50.834;6.286;2023-08-17T14:54:20;24.90;99.90
15143;DHT22;7672;50.834;6.286;2023-08-17T14:56:50;25.00;99.90
15143;DHT22;7672;50.834;6.286;2023-08-17T14:59:23;25.00;99.90
15143;DHT22;7672;50.834;6.286;2023-08-17T15:01:50;25.00;99.90
15143;DHT22;7672;50.834;6.286;2023-08-17T15:04:20;25.10;99.90
15143;DHT22;7672;50.834;6.286;2023-08-17T15:07:00;25.10;99.90
15143;DHT22;7672;50.834;6.286;2023-08-17T15:09:48;25.20;99.90
15143;DHT22;7672;50.834;6.286;2023-08-17T15:12:38;25.20;99.90
15143;DHT22;7672;50.834;6.286;2023-08-17T15:15:07;25.30;99.90
15143;DHT22;7672;50.834;6.286;2023-08-17T15:17:37;25.30;99.90
15143;DHT22;7672;50.834;6.286;2023-08-17T15:20:05;25.40;99.90
15143;DHT22;7672;50.834;6.286;2023-08-17T15:22:39;25.40;99.90
15143;DHT22;7672;50.834;6.286;2023-08-17T15:25:09;25.40;99.90
15143;DHT22;7672;50.834;6.286;2023-08-17T15:27:45;25.50;99.90
15143;DHT22;7672;50.834;6.286;2023-08-17T15:30:18;25.50;99.90
15143;DHT22;7672;50.834;6.286;2023-08-17T15:32:48;25.50;99.90
15143;DHT22;7672;50.834;6.286;2023-08-17T15:35:15;25.70;99.90
15143;DHT22;7672;50.834;6.286;2023-08-17T15:37:55;26.00;99.90
15143;DHT22;7672;50.834;6.286;2023-08-17T15:40:25;25.80;99.90
15143;DHT22;7672;50.834;6.286;2023-08-17T15:43:09;25.80;99.90
15143;DHT22;7672;50.834;6.286;2023-08-17T15:45:51;25.80;99.90
15143;DHT22;7672;50.834;6.286;2023-08-17T15:48:19;25.80;99.90
15143;DHT22;7672;50.834;6.286;2023-08-17T15:50:57;25.80;99.90
15143;DHT22;7672;50.834;6.286;2023-08-17T15:53:38;25.40;99.90
15143;DHT22;7672;50.834;6.286;2023-08-17T15:56:14;25.70;99.90
15143;DHT22;7672;50.834;6.286;2023-08-17T15:58:51;25.70;99.90
15143;DHT22;7672;50.834;6.286;2023-08-17T16:01:31;25.70;99.90
15143;DHT22;7672;50.834;6.286;2023-08-17T16:04:27;25.50;99.90
15143;DHT22;7672;50.834;6.286;2023-08-17T16:07:38;25.60;99.90
15143;DHT22;7672;50.834;6.286;2023-08-17T16:10:28;25.50;99.90
15143;DHT22;7672;50.834;6.286;2023-08-17T16:13:34;25.40;99.90
15143;DHT22;7672;50.834;6.286;2023-08-17T16:16:42;25.00;99.90
15143;DHT22;7672;50.834;6.286;2023-08-17T16:19:39;25.30;99.90
15143;DHT22;7672;50.834;6.286;2023-08-17T16:22:42;25.20;99.90
15143;DHT22;7672;50.834;6.286;2023-08-17T16:25:35;25.00;99.90
15143;DHT22;7672;50.834;6.286;2023-08-17T16:28:21;25.00;99.90
15143;DHT22;7672;50.834;6.286;2023-08-17T16:31:10;24.90;99.90
15143;DHT22;7672;50.834;6.286;2023-08-17T16:34:06;24.90;99.90